Colwell, IA (50620)

4:57 PM CDT on August 29, 2016 (GMT -0500)
Charles City Municipal | | Change Station

Elev 1125 ft 43.07 °N, 92.61 °W | Updated 2 minutes ago

Clear
Clear
75 °F
Feels Like 75 °F
N
5
Wind Variable Wind from NNW

Today
High -- | Low -- °F
--% Chance of Precip.
Yesterday
High -- | Low -- °F
Precip. -- in
Pressure 30.18 in
Visibility 9.0 miles
Clouds Clear
Dew Point 75 °F
Humidity 100%
Rainfall 0.03 in
Snow Depth Not available.
6:31 AM 7:49 PM
Waning Crescent, 7% visible
METAR KCCY 292155Z AUTO 33004KT 9SM CLR 24/24 A3018 RMK AO2 P0002
Pressure 30.18 in
Visibility 9.0 miles
Clouds Clear
Dew Point 75 °F
Humidity 100%
Rainfall 0.03 in
Snow Depth Not available.
6:31 AM 7:49 PM
Waning Crescent, 7% visible
METAR KCCY 292155Z AUTO 33004KT 9SM CLR 24/24 A3018 RMK AO2 P0002

10-Day Weather Forecast

Almanac

Astronomy

Aug. 29, 2016 Rise Set
Actual Time
Civil Twilight
Nautical Twilight
Astronomical Twilight
Moon
Length of Visible Light
Length of Day
Tomorrow will be .
, % of the Moon is Illuminated

Today's Extremes

State Highs State Lows

Community

WunderPhotos

Upload Photos

1,935,690 photos uploaded!

WunderBlog® & News

Nearby

Air Quality

  Air Quality AQ Index Pollutant
Not available.

Snow Depth

Station Depth Elevation

Earthquake Activity

City Distance Mag. Time & Date
Minimum magnitude displayed is 2.5.

Coastal Water Temperatures

Place Temperature

Stations

Nearby Weather Stations

Station Location Temp. Windchill Dew Point Humidity Wind Precip. Elev Updated Type
                   

Watches & Warnings

There are currently no watches in effect.